Nearby METAR Reports

 

KEQY - Monroe, North Carolina, USA
Distance from station: S 11mi, 18km
Updated: Thu, 04/17/2014 1:53pm EDT
Clear
Clear
 Wind from varies
Wind: varies 7 mph , 11 km/h
Temperature: 57°F , 14°C
Dew Point: 25°F , -4°C
Humidity: 29%
Barometer: 30.47 inHg , 1031.8 hPa
Clouds: Clear
Visibility: 10 miles , 16 km
2014/04/17 17:53 KEQY 171753Z AUTO VRB06KT 10SM CLR 14/M04 A3047 RMK AO2 SLP331 T01391039 10144 20028 58017
KJQF - Concord Reg Arpt, North Carolina, USA
Distance from station: NNW 16mi, 25km
Updated: Thu, 04/17/2014 1:51pm EDT
Clear
Clear
 Wind from ENE
Wind: ENE 9 mph , 15 km/h
Temperature: 57°F , 14°C
Dew Point: 27°F , -3°C
Humidity: 31%
Barometer: 30.52 inHg , 1033.5 hPa
Clouds: Clear
Visibility: 10 miles , 16 km
2014/04/17 17:51 KJQF 171751Z 06008KT 10SM CLR 14/M03 A3052
 
KCLT - Charlotte, North Carolina, USA
Distance from station: W 20mi, 33km
Updated: Thu, 04/17/2014 1:52pm EDT
Partly cloudy
Partly cloudy
 Wind from NE
Wind: NE 10 mph , 17 km/h
Temperature: 57°F , 14°C
Dew Point: 27°F , -3°C
Humidity: 31%
Barometer: 30.48 inHg , 1032.2 hPa
Clouds: Partly cloudy
Visibility: 10 miles , 16 km
Cloud details: Partly cloudy 25000 ft
2014/04/17 17:52 KCLT 171752Z 05009KT 10SM SCT250 14/M03 A3048 RMK AO2 SLP323 T01441028 10150 20039 58017
KUZA - Rock Hill, South Carolina, USA
Distance from station: WSW 29mi, 47km
Updated: Thu, 04/17/2014 1:54pm EDT
Clear
Clear
 Wind from NNE
Wind: NNE 9 mph , 15 km/h
Temperature: 59°F , 15°C
Dew Point: 27°F , -3°C
Humidity: 29%
Barometer: 30.47 inHg , 1031.8 hPa
Clouds: Clear
Visibility: 10 miles , 16 km
2014/04/17 17:54 KUZA 171754Z AUTO 03008KT 10SM CLR 15/M03 A3047 RMK AO2 RAB29E39 SLP321 P0000 60000 T01501033 10150 20033 58016
 
KVUJ - Albemarle Stanly, North Carolina, USA
Distance from station: NE 30mi, 48km
Updated: Thu, 04/17/2014 2:15pm EDT
Clear
Clear
 Wind from NE
Wind: NE 6 mph , 9 km/h
Temperature: 59°F , 15°C
Dew Point: 28°F , -2°C
Humidity: 31%
Barometer: 30.52 inHg , 1033.5 hPa
Clouds: Clear
Visibility: 10 miles , 16 km
2014/04/17 18:15 KVUJ 171815Z AUTO 05005KT 10SM CLR 15/M02 A3052 RMK AO2 T01511019
KAFP - Wadesboro/Anson, North Carolina, USA
Distance from station: ESE 31mi, 50km
Updated: Thu, 04/17/2014 2:15pm EDT
Clear
Clear
 Wind from NE
Wind: NE 8 mph , 13 km/h
Temperature: 63°F , 17°C
Dew Point: 28°F , -2°C
Humidity: 27%
Barometer: 30.46 inHg , 1031.5 hPa
Clouds: Clear
Visibility: 10 miles , 16 km
2014/04/17 18:15 KAFP 171815Z AUTO 04007KT 10SM CLR 17/M02 A3046 RMK AO2 T01661023
 
KAKH - Gastonia, North Carolina, USA
Distance from station: W 31mi, 51km
Updated: Thu, 04/17/2014 1:54pm EDT
Clear
Clear
 Wind from NE
Wind: NE 10 mph , 17 km/h
Temperature: 57°F , 14°C
Dew Point: 28°F , -2°C
Humidity: 33%
Barometer: 30.47 inHg , 1031.8 hPa
Clouds: Clear
Visibility: 10 miles , 16 km
2014/04/17 17:54 KAKH 171754Z AUTO 04009KT 10SM CLR 14/M02 A3047 RMK AO2 SLP321 T01441022 10144 20033 58018
KRUQ - Salisbury Rowan, North Carolina, USA
Distance from station: N 33mi, 53km
Updated: Thu, 04/17/2014 2:15pm EDT
Clear
Clear
 Wind from NE
Wind: NE 3 mph , 6 km/h
Temperature: 57°F , 14°C
Dew Point: 28°F , -2°C
Humidity: 33%
Barometer: 30.48 inHg , 1032.2 hPa
Clouds: Clear
Visibility: 10 miles , 16 km
2014/04/17 18:15 KRUQ 171815Z AUTO 04003KT 10SM CLR 14/M02 A3048 RMK AO2 T01391023
 
KLKR - Lancaster, South Carolina, USA
Distance from station: SSW 35mi, 57km
Updated: Thu, 04/17/2014 2:15pm EDT
Clear
Clear
 Wind from NNE
Wind: NNE 9 mph , 15 km/h
Temperature: 59°F , 15°C
Dew Point: 27°F , -3°C
Humidity: 29%
Barometer: 30.47 inHg , 1031.8 hPa
Clouds: Clear
Visibility: 10 miles , 16 km
2014/04/17 18:15 KLKR 171815Z AUTO 03008KT 10SM CLR 15/M03 A3047 RMK AO2
KIPJ - Lincolnton, North Carolina, USA
Distance from station: WNW 39mi, 62km
Updated: Thu, 04/17/2014 2:15pm EDT
Clear
Clear
 Wind from E
Wind: E 8 mph , 13 km/h
Temperature: 57°F , 14°C
Dew Point: 25°F , -4°C
Humidity: 29%
Barometer: 30.48 inHg , 1032.2 hPa
Clouds: Clear
Visibility: 10 miles , 16 km
2014/04/17 18:15 KIPJ 171815Z AUTO 08007KT 050V120 10SM CLR 14/M04 A3048 RMK AO2 T01401038
 
KDCM - Chester Catawba, South Carolina, USA
Distance from station: SW 44mi, 71km
Updated: Thu, 04/17/2014 1:55pm EDT
Clear
Clear
 Wind from ENE
Wind: ENE 8 mph , 13 km/h
Temperature: 61°F , 16°C
Dew Point: 30°F , -1°C
Humidity: 31%
Barometer: 30.47 inHg , 1031.8 hPa
Clouds: Clear
Visibility: 10 miles , 16 km
2014/04/17 17:55 KDCM 171755Z AUTO 07007KT 10SM CLR 16/M01 A3047 RMK AO2
KSVH - Statesville, North Carolina, USA
Distance from station: NNW 44mi, 71km
Updated: Thu, 04/17/2014 2:15pm EDT
Clear
Clear
 Wind from E
Wind: E 7 mph , 11 km/h
Temperature: 55°F , 13°C
Dew Point: 28°F , -2°C
Humidity: 36%
Barometer: 30.47 inHg , 1031.8 hPa
Clouds: Clear
Visibility: 10 miles , 16 km
2014/04/17 18:15 KSVH 171815Z AUTO 10006KT 10SM CLR 13/M02 A3047 RMK AO2 T01321025
 
KEXX - Davidson Cty Ap, North Carolina, USA
Distance from station: NNE 45mi, 72km
Updated: Thu, 04/17/2014 2:15pm EDT
Clear
Clear
 Wind from ENE
Wind: ENE 6 mph , 9 km/h
Temperature: 57°F , 14°C
Dew Point: 27°F , -3°C
Humidity: 31%
Barometer: 30.48 inHg , 1032.2 hPa
Clouds: Clear
Visibility: 10 miles , 16 km
2014/04/17 18:15 KEXX 171815Z AUTO 06005KT 10SM CLR 14/M03 A3048 RMK AO2 T01361027
KCQW - Cheraw, South Carolina, USA
Distance from station: SE 49mi, 78km
Updated: Thu, 04/17/2014 2:15pm EDT
Clear
Clear
 
Temperature: 61°F , 16°C
Dew Point: 34°F , 1°C
Humidity: 36%
Barometer: 30.46 inHg , 1031.5 hPa
Clouds: Clear
2014/04/17 18:15 KCQW 171815Z AUTO CLR 16/01 A3046 RMK AO2